createdAt,value
2018-05-06T00:00:31.998Z,84.16
2018-05-06T00:01:31.910Z,83.48
2018-05-06T00:02:31.836Z,82.91
2018-05-06T00:03:31.762Z,83.96
2018-05-06T00:04:31.674Z,82.15
2018-05-06T00:05:31.598Z,81.48
2018-05-06T00:06:31.512Z,82.63
2018-05-06T00:07:31.458Z,84.53
2018-05-06T00:08:31.353Z,83.67
2018-05-06T00:09:31.276Z,83.48
2018-05-06T00:10:31.187Z,82.82
2018-05-06T00:11:31.110Z,84.92
2018-05-06T00:12:31.036Z,83.39
2018-05-06T00:13:30.949Z,84.16
2018-05-06T00:14:30.884Z,84.25
2018-05-06T00:15:30.803Z,84.34
2018-05-06T00:16:30.714Z,83.48
2018-05-06T00:17:30.651Z,83.87
2018-05-06T00:18:30.552Z,85.30
2018-05-06T00:19:30.483Z,85.01
2018-05-06T00:20:30.401Z,85.30
2018-05-06T00:21:30.314Z,85.21
2018-05-06T00:22:30.237Z,85.39
2018-05-06T00:23:30.151Z,85.77
2018-05-06T00:24:30.076Z,85.30
2018-05-06T00:25:30.007Z,85.11
2018-05-06T00:26:29.914Z,85.58
2018-05-06T00:27:29.841Z,84.82
2018-05-06T00:28:29.753Z,85.49
2018-05-06T00:29:29.682Z,84.34
2018-05-06T00:30:29.601Z,84.44
2018-05-06T00:31:29.514Z,84.44
2018-05-06T00:32:29.438Z,85.58
2018-05-06T00:33:29.353Z,85.21
2018-05-06T00:34:29.277Z,84.72
2018-05-06T00:35:29.202Z,85.68
2018-05-06T00:36:29.113Z,84.63
2018-05-06T00:37:29.043Z,84.53
2018-05-06T00:38:28.955Z,84.44
2018-05-06T00:39:28.879Z,84.44
2018-05-06T00:40:28.804Z,85.87
2018-05-06T00:41:28.716Z,84.16
2018-05-06T00:42:28.639Z,84.34
2018-05-06T00:43:28.553Z,84.34
2018-05-06T00:44:28.478Z,85.49
2018-05-06T00:45:28.403Z,84.82
2018-05-06T00:46:28.326Z,84.78
2018-05-06T00:47:28.246Z,84.44
2018-05-06T00:48:28.155Z,84.59
2018-05-06T00:49:28.083Z,83.48
2018-05-06T00:50:28.006Z,85.68
2018-05-06T00:51:27.930Z,85.25
2018-05-06T00:52:27.842Z,83.92
2018-05-06T00:53:27.759Z,84.11
2018-05-06T00:54:27.679Z,84.88
2018-05-06T00:55:27.604Z,83.44
2018-05-06T00:56:27.531Z,83.25
2018-05-06T00:57:27.449Z,83.06
2018-05-06T00:58:27.360Z,82.49
2018-05-06T00:59:27.282Z,83.16
2018-05-06T01:00:27.210Z,83.35
2018-05-06T01:01:27.133Z,82.20
2018-05-06T01:02:27.041Z,83.44
2018-05-06T01:03:26.956Z,82.40
2018-05-06T01:04:26.880Z,82.78
2018-05-06T01:05:26.804Z,82.78
2018-05-06T01:06:26.717Z,82.59
2018-05-06T01:07:26.642Z,82.78
2018-05-06T01:08:26.555Z,83.54
2018-05-06T01:09:26.482Z,81.63
2018-05-06T01:10:26.408Z,84.01
2018-05-06T01:11:26.320Z,82.87
2018-05-06T01:12:26.257Z,82.30
2018-05-06T01:13:26.169Z,83.54
2018-05-06T01:14:26.081Z,83.44
2018-05-06T01:15:26.006Z,83.73
2018-05-06T01:16:25.919Z,82.87
2018-05-06T01:17:25.856Z,82.68
2018-05-06T01:18:25.760Z,83.35
2018-05-06T01:19:25.685Z,82.87
2018-05-06T01:20:25.596Z,82.97
2018-05-06T01:21:25.521Z,83.25
2018-05-06T01:22:25.447Z,83.83
2018-05-06T01:23:25.359Z,82.68
2018-05-06T01:24:25.284Z,81.06
2018-05-06T01:25:25.196Z,80.39
2018-05-06T01:26:25.119Z,81.78
2018-05-06T01:27:25.045Z,80.68
2018-05-06T01:28:24.960Z,81.82
2018-05-06T01:29:24.883Z,80.68
2018-05-06T01:30:24.796Z,80.01
2018-05-06T01:31:24.722Z,81.02
2018-05-06T01:32:24.645Z,80.01
2018-05-06T01:33:24.561Z,81.59
2018-05-06T01:34:24.483Z,81.59
2018-05-06T01:35:24.408Z,82.26
2018-05-06T01:36:24.320Z,81.68
2018-05-06T01:37:24.235Z,81.06
2018-05-06T01:38:24.237Z,81.30
2018-05-06T01:39:24.074Z,81.78
2018-05-06T01:40:23.998Z,80.64
2018-05-06T01:41:23.922Z,80.35
2018-05-06T01:42:23.835Z,79.49
2018-05-06T01:43:23.759Z,78.92
2018-05-06T01:44:23.672Z,78.73
2018-05-06T01:45:23.597Z,79.49
2018-05-06T01:46:23.526Z,78.35
2018-05-06T01:47:23.437Z,79.68
2018-05-06T01:48:23.362Z,79.97
2018-05-06T01:49:23.274Z,78.73
2018-05-06T01:50:23.197Z,78.54
2018-05-06T01:51:23.110Z,77.87
2018-05-06T01:52:23.035Z,76.82
2018-05-06T01:53:22.948Z,77.69
2018-05-06T01:54:22.872Z,78.35
2018-05-06T01:55:22.797Z,78.25
2018-05-06T01:56:22.710Z,78.35
2018-05-06T01:57:22.637Z,79.02
2018-05-06T01:58:22.550Z,77.97
2018-05-06T01:59:22.477Z,77.69
2018-05-06T02:00:22.400Z,78.35
2018-05-06T02:01:22.314Z,77.59
2018-05-06T02:02:22.238Z,78.35
2018-05-06T02:03:22.148Z,77.87
2018-05-06T02:04:22.074Z,77.40
2018-05-06T02:05:21.998Z,76.82
2018-05-06T02:06:21.913Z,77.83
2018-05-06T02:07:21.839Z,77.17
2018-05-06T02:08:21.751Z,75.55
2018-05-06T02:09:21.676Z,74.98
2018-05-06T02:10:21.594Z,74.60
2018-05-06T02:11:21.514Z,74.12
2018-05-06T02:12:21.426Z,74.88
2018-05-06T02:13:21.353Z,74.98
2018-05-06T02:14:21.263Z,74.69
2018-05-06T02:15:21.187Z,73.83
2018-05-06T02:16:21.102Z,73.74
2018-05-06T02:17:21.030Z,74.21
2018-05-06T02:18:20.954Z,73.65
2018-05-06T02:19:20.865Z,73.26
2018-05-06T02:20:20.791Z,74.02
2018-05-06T02:21:20.703Z,73.26
2018-05-06T02:22:20.626Z,74.60
2018-05-06T02:23:20.551Z,73.93
2018-05-06T02:24:20.465Z,73.26
2018-05-06T02:25:20.389Z,73.26
2018-05-06T02:26:20.301Z,73.07
2018-05-06T02:27:20.226Z,75.64
2018-05-06T02:28:20.142Z,72.50
2018-05-06T02:29:20.066Z,75.64
2018-05-06T02:30:19.990Z,75.55
2018-05-06T02:31:19.916Z,77.17
2018-05-06T02:32:19.832Z,77.17
2018-05-06T02:33:19.742Z,76.88
2018-05-06T02:34:19.678Z,77.26
2018-05-06T02:35:19.578Z,77.26
2018-05-06T02:36:19.515Z,76.69
2018-05-06T02:37:19.415Z,78.06
2018-05-06T02:38:19.344Z,76.21
2018-05-06T02:39:19.255Z,78.78
2018-05-06T02:40:19.180Z,77.87
2018-05-06T02:41:19.093Z,77.36
2018-05-06T02:42:19.018Z,76.50
2018-05-06T02:43:18.943Z,77.17
2018-05-06T02:44:18.866Z,74.60
2018-05-06T02:45:18.780Z,73.65
2018-05-06T02:46:18.696Z,73.65
2018-05-06T02:47:18.618Z,74.69
2018-05-06T02:48:18.528Z,74.79
2018-05-06T02:49:18.454Z,77.17
2018-05-06T02:50:18.371Z,78.12
2018-05-06T02:51:18.294Z,76.98
2018-05-06T02:52:18.208Z,77.26
2018-05-06T02:53:18.132Z,77.07
2018-05-06T02:54:18.055Z,76.12
2018-05-06T02:55:17.968Z,76.79
2018-05-06T02:56:17.894Z,75.16
2018-05-06T02:57:17.805Z,73.74
2018-05-06T02:58:17.733Z,73.26
2018-05-06T02:59:17.655Z,76.21
2018-05-06T03:00:17.580Z,74.98
2018-05-06T03:01:17.493Z,74.60
2018-05-06T03:02:17.407Z,72.60
2018-05-06T03:03:17.332Z,75.16
2018-05-06T03:04:17.246Z,75.26
2018-05-06T03:05:17.174Z,72.31
2018-05-06T03:06:17.080Z,71.17
2018-05-06T03:07:17.006Z,73.36
2018-05-06T03:08:16.918Z,72.69
2018-05-06T03:09:16.845Z,74.60
2018-05-06T03:10:16.773Z,72.69
2018-05-06T03:11:16.683Z,72.31
2018-05-06T03:12:16.601Z,71.64
2018-05-06T03:13:16.522Z,72.60
2018-05-06T03:14:16.437Z,71.55
2018-05-06T03:15:16.363Z,72.69
2018-05-06T03:16:16.284Z,73.36
2018-05-06T03:17:16.196Z,73.74
2018-05-06T03:18:16.121Z,72.21
2018-05-06T03:19:16.033Z,72.02
2018-05-06T03:20:15.961Z,71.73
2018-05-06T03:21:15.870Z,70.97
2018-05-06T03:22:15.799Z,70.78
2018-05-06T03:23:15.713Z,71.64
2018-05-06T03:24:15.635Z,74.79
2018-05-06T03:25:15.561Z,74.12
2018-05-06T03:26:15.482Z,72.78
2018-05-06T03:27:15.396Z,73.17
2018-05-06T03:28:15.307Z,70.69
2018-05-06T03:29:15.233Z,73.65
2018-05-06T03:30:15.148Z,69.93
2018-05-06T03:31:15.074Z,72.41
2018-05-06T03:32:14.983Z,70.97
2018-05-06T03:33:14.909Z,70.97
2018-05-06T03:34:14.825Z,71.07
2018-05-06T03:35:14.751Z,72.12
2018-05-06T03:36:14.661Z,72.50
2018-05-06T03:37:14.587Z,69.83
2018-05-06T03:38:14.509Z,72.69
2018-05-06T03:39:14.423Z,70.78
2018-05-06T03:40:14.348Z,69.74
2018-05-06T03:41:14.259Z,73.83
2018-05-06T03:42:14.188Z,72.97
2018-05-06T03:43:14.101Z,72.97
2018-05-06T03:44:14.026Z,73.93
2018-05-06T03:45:13.937Z,72.50
2018-05-06T03:46:13.861Z,70.88
2018-05-06T03:47:13.774Z,71.07
2018-05-06T03:48:13.698Z,74.40
2018-05-06T03:49:13.612Z,73.93
2018-05-06T03:50:13.538Z,72.21
2018-05-06T03:51:13.476Z,71.64
2018-05-06T03:52:13.376Z,70.59
2018-05-06T03:53:13.303Z,72.50
2018-05-06T03:54:13.211Z,73.07
2018-05-06T03:55:13.136Z,73.65
2018-05-06T03:56:13.050Z,73.36
2018-05-06T03:57:12.975Z,71.55
2018-05-06T03:58:12.891Z,71.36
2018-05-06T03:59:12.813Z,72.78
2018-05-06T04:00:12.729Z,73.07
2018-05-06T04:01:12.652Z,69.35
2018-05-06T04:02:12.564Z,70.69
2018-05-06T04:03:12.489Z,69.74
2018-05-06T04:04:12.406Z,70.88
2018-05-06T04:05:12.327Z,69.83
2018-05-06T04:06:12.251Z,71.26
2018-05-06T04:07:12.162Z,70.78
2018-05-06T04:08:12.087Z,69.54
2018-05-06T04:09:12.000Z,66.88
2018-05-06T04:10:11.928Z,71.45
2018-05-06T04:11:11.839Z,69.17
2018-05-06T04:12:11.765Z,69.45
2018-05-06T04:13:11.677Z,68.59
2018-05-06T04:14:11.602Z,68.88
2018-05-06T04:15:11.514Z,73.17
2018-05-06T04:16:11.438Z,67.93
2018-05-06T04:17:11.352Z,69.07
2018-05-06T04:18:11.277Z,68.98
2018-05-06T04:19:11.202Z,72.12
2018-05-06T04:20:11.113Z,72.97
2018-05-06T04:21:11.064Z,73.17
2018-05-06T04:22:10.956Z,71.45
2018-05-06T04:23:10.878Z,68.88
2018-05-06T04:24:10.792Z,72.97
2018-05-06T04:25:10.722Z,73.01
2018-05-06T04:26:10.627Z,71.68
2018-05-06T04:27:10.553Z,75.01
2018-05-06T04:28:10.464Z,75.68
2018-05-06T04:29:10.389Z,75.78
2018-05-06T04:30:10.317Z,75.68
2018-05-06T04:31:10.231Z,76.16
2018-05-06T04:32:10.155Z,77.11
2018-05-06T04:33:10.067Z,76.54
2018-05-06T04:34:09.992Z,76.35
2018-05-06T04:35:09.906Z,75.78
2018-05-06T04:36:09.835Z,74.16
2018-05-06T04:37:09.743Z,73.30
2018-05-06T04:38:09.671Z,74.19
2018-05-06T04:39:09.579Z,76.77
2018-05-06T04:40:09.504Z,73.81
2018-05-06T04:41:09.418Z,76.77
2018-05-06T04:42:09.344Z,75.24
2018-05-06T04:43:09.268Z,78.10
2018-05-06T04:44:09.236Z,78.86
2018-05-06T04:45:09.107Z,76.67
2018-05-06T04:46:09.017Z,74.19
2018-05-06T04:47:08.942Z,79.82
2018-05-06T04:48:08.855Z,78.67
2018-05-06T04:49:08.780Z,74.38
2018-05-06T04:50:08.707Z,79.15
2018-05-06T04:51:08.621Z,73.81
2018-05-06T04:52:08.545Z,76.01
2018-05-06T04:53:08.460Z,74.32
2018-05-06T04:54:08.381Z,81.15
2018-05-06T04:55:08.293Z,77.38
2018-05-06T04:56:08.218Z,77.19
2018-05-06T04:57:08.156Z,76.33
2018-05-06T04:58:08.058Z,81.10
2018-05-06T04:59:07.984Z,76.90
2018-05-06T05:00:07.895Z,77.19
2018-05-06T05:01:07.821Z,80.81
2018-05-06T05:02:07.745Z,77.95
2018-05-06T05:03:07.656Z,80.62
2018-05-06T05:04:07.583Z,81.58
2018-05-06T05:05:07.494Z,80.72
2018-05-06T05:06:07.420Z,78.23
2018-05-06T05:07:07.344Z,79.86
2018-05-06T05:08:07.257Z,81.29
2018-05-06T05:09:07.184Z,76.52
2018-05-06T05:10:07.114Z,79.57
2018-05-06T05:11:07.022Z,78.33
2018-05-06T05:12:06.940Z,79.86
2018-05-06T05:13:06.860Z,79.48
2018-05-06T05:14:06.783Z,77.09
2018-05-06T05:15:06.695Z,78.23
2018-05-06T05:16:06.620Z,81.29
2018-05-06T05:17:06.546Z,79.77
2018-05-06T05:18:06.463Z,79.96
2018-05-06T05:19:06.385Z,79.67
2018-05-06T05:20:06.298Z,78.81
2018-05-06T05:21:06.235Z,80.57
2018-05-06T05:22:06.151Z,79.71
2018-05-06T05:23:06.061Z,79.96
2018-05-06T05:24:05.985Z,81.96
2018-05-06T05:25:05.898Z,80.62
2018-05-06T05:26:05.824Z,78.81
2018-05-06T05:27:05.747Z,76.46
2018-05-06T05:28:05.659Z,77.70
2018-05-06T05:29:05.585Z,80.28
2018-05-06T05:30:05.499Z,81.81
2018-05-06T05:31:05.423Z,82.38
2018-05-06T05:32:05.348Z,77.99
2018-05-06T05:33:05.263Z,81.33
2018-05-06T05:34:05.185Z,80.85
2018-05-06T05:35:05.099Z,81.33
2018-05-06T05:36:05.028Z,83.81
2018-05-06T05:37:04.947Z,81.71
2018-05-06T05:38:04.860Z,80.19
2018-05-06T05:39:04.785Z,82.19
2018-05-06T05:40:04.699Z,80.66
2018-05-06T05:41:04.623Z,82.67
2018-05-06T05:42:04.550Z,81.43
2018-05-06T05:43:04.464Z,78.85
2018-05-06T05:44:04.389Z,78.18
2018-05-06T05:45:04.314Z,78.75
2018-05-06T05:46:04.224Z,82.81
2018-05-06T05:47:04.153Z,84.29
2018-05-06T05:48:04.073Z,83.43
2018-05-06T05:49:03.987Z,81.76
2018-05-06T05:50:03.919Z,84.39
2018-05-06T05:51:03.826Z,80.85
2018-05-06T05:52:03.753Z,85.38
2018-05-06T05:53:03.677Z,83.18
2018-05-06T05:54:03.589Z,83.00
2018-05-06T05:55:03.513Z,85.86
2018-05-06T05:56:03.425Z,83.47
2018-05-06T05:57:03.350Z,84.05
2018-05-06T05:58:03.277Z,84.23
2018-05-06T05:59:03.192Z,84.81
2018-05-06T06:00:03.115Z,85.48
2018-05-06T06:01:03.041Z,83.67
2018-05-06T06:02:02.950Z,85.29
2018-05-06T06:03:02.876Z,83.38
2018-05-06T06:04:02.795Z,84.62
2018-05-06T06:05:02.715Z,83.09
2018-05-06T06:06:02.641Z,84.23
2018-05-06T06:07:02.567Z,82.28
2018-05-06T06:08:02.478Z,86.00
2018-05-06T06:09:02.403Z,86.38
2018-05-06T06:10:02.316Z,86.15
2018-05-06T06:11:02.242Z,85.38
2018-05-06T06:12:02.157Z,86.34
2018-05-06T06:13:02.081Z,86.05
2018-05-06T06:14:02.004Z,85.86
2018-05-06T06:15:01.916Z,85.58
2018-05-06T06:16:01.840Z,85.67
2018-05-06T06:17:01.765Z,85.77
2018-05-06T06:18:01.692Z,84.43
2018-05-06T06:19:01.604Z,85.42
2018-05-06T06:20:01.529Z,85.71
2018-05-06T06:21:01.454Z,86.29
2018-05-06T06:22:01.366Z,82.84
2018-05-06T06:23:01.291Z,84.38
2018-05-06T06:24:01.202Z,86.29
2018-05-06T06:25:01.128Z,89.15
2018-05-06T06:26:01.053Z,86.86
2018-05-06T06:27:00.966Z,87.05
2018-05-06T06:28:00.891Z,87.91
2018-05-06T06:29:00.804Z,86.10
2018-05-06T06:30:00.731Z,85.66
2018-05-06T06:31:00.655Z,87.48
2018-05-06T06:32:00.569Z,87.00
2018-05-06T06:33:00.515Z,86.04
2018-05-06T06:34:00.417Z,86.80
2018-05-06T06:35:00.328Z,84.32
2018-05-06T06:36:00.253Z,86.71
2018-05-06T06:37:00.184Z,84.61
2018-05-06T06:38:00.097Z,85.47
2018-05-06T06:39:00.026Z,88.15
2018-05-06T06:39:59.945Z,87.29
2018-05-06T06:40:59.856Z,88.05
2018-05-06T06:41:59.783Z,85.51
2018-05-06T06:42:59.706Z,89.05
2018-05-06T06:43:59.621Z,88.09
2018-05-06T06:44:59.546Z,88.76
2018-05-06T06:45:59.468Z,87.62
2018-05-06T06:46:59.385Z,87.90
2018-05-06T06:47:59.357Z,88.95
2018-05-06T06:48:59.230Z,88.29
2018-05-06T06:49:59.148Z,87.81
2018-05-06T06:50:59.076Z,88.29
2018-05-06T06:51:58.996Z,86.94
2018-05-06T06:52:58.909Z,88.95
2018-05-06T06:53:58.844Z,88.09
2018-05-06T06:54:58.759Z,88.62
2018-05-06T06:55:58.685Z,88.43
2018-05-06T06:56:58.594Z,87.81
2018-05-06T06:57:58.524Z,88.04
2018-05-06T06:58:58.445Z,87.66
2018-05-06T06:59:58.357Z,89.48
2018-05-06T07:00:58.282Z,86.80
2018-05-06T07:01:58.209Z,87.18
2018-05-06T07:02:58.134Z,87.51
2018-05-06T07:03:58.050Z,86.65
2018-05-06T07:04:57.974Z,86.46
2018-05-06T07:05:57.917Z,87.23
2018-05-06T07:06:57.821Z,87.41
2018-05-06T07:07:57.732Z,86.65
2018-05-06T07:08:57.674Z,84.64
2018-05-06T07:09:57.585Z,84.83
2018-05-06T07:10:57.523Z,86.27
2018-05-06T07:11:57.423Z,86.50
2018-05-06T07:12:57.347Z,80.56
2018-05-06T07:13:57.273Z,84.49
2018-05-06T07:14:57.187Z,78.27
2018-05-06T07:15:59.737Z,76.92
2018-05-06T07:16:57.035Z,75.58
2018-05-06T07:17:56.972Z,77.69
2018-05-06T07:18:56.887Z,73.41
2018-05-06T07:19:56.796Z,73.26
2018-05-06T07:21:38.846Z,69.26
2018-05-06T07:22:38.759Z,62.29
2018-05-06T07:23:38.683Z,59.44
2018-05-06T07:24:38.612Z,57.55
2018-05-06T07:25:38.536Z,56.11
2018-05-06T07:26:38.461Z,54.22
2018-05-06T07:27:38.375Z,54.31
2018-05-06T07:28:38.301Z,52.10
2018-05-06T07:29:38.224Z,51.29
2018-05-06T07:30:38.153Z,49.65
2018-05-06T07:31:38.075Z,49.46
2018-05-06T07:32:38.000Z,49.46
2018-05-06T07:33:37.926Z,48.30
2018-05-06T07:34:37.837Z,47.53
2018-05-06T07:35:37.763Z,47.65
2018-05-06T07:36:37.701Z,47.63
2018-05-06T07:37:37.625Z,48.16
2018-05-06T07:38:37.538Z,47.70
2018-05-06T07:39:37.463Z,46.18
2018-05-06T07:40:37.386Z,45.89
2018-05-06T07:41:37.347Z,45.70
2018-05-06T07:42:37.236Z,44.54
2018-05-06T07:43:37.177Z,43.98
2018-05-06T07:44:37.101Z,43.62
2018-05-06T07:45:37.027Z,44.51
2018-05-06T07:46:36.955Z,42.87
2018-05-06T07:47:36.878Z,42.00
2018-05-06T07:48:36.800Z,41.54
2018-05-06T07:49:36.726Z,41.57
2018-05-06T07:50:36.665Z,42.44
2018-05-06T07:51:36.587Z,42.48
2018-05-06T07:52:36.513Z,42.13
2018-05-06T07:53:36.438Z,43.38
2018-05-06T07:54:36.376Z,42.85
2018-05-06T07:55:36.301Z,42.66
2018-05-06T07:56:36.228Z,41.88
2018-05-06T07:57:36.165Z,41.67
2018-05-06T07:58:36.090Z,41.98
2018-05-06T07:59:36.017Z,42.18
2018-05-06T08:00:35.942Z,41.61
2018-05-06T08:01:35.877Z,40.65
2018-05-06T08:02:35.801Z,40.47
2018-05-06T08:03:35.738Z,41.15
2018-05-06T08:04:35.667Z,40.45
2018-05-06T08:05:35.590Z,40.40
2018-05-06T08:06:35.529Z,39.32
2018-05-06T08:07:35.457Z,39.70
2018-05-06T08:08:35.391Z,39.53
2018-05-06T08:09:35.330Z,39.59
2018-05-06T08:10:35.246Z,39.12
2018-05-06T08:11:35.180Z,38.45
2018-05-06T08:12:35.103Z,37.56
2018-05-06T08:13:35.040Z,39.28
2018-05-06T08:14:34.965Z,39.69
2018-05-06T08:15:34.904Z,39.29
2018-05-06T08:16:34.833Z,38.99
2018-05-06T08:17:34.767Z,39.12
2018-05-06T08:18:34.692Z,38.64
2018-05-06T08:19:34.631Z,38.85
2018-05-06T08:20:34.565Z,39.09
2018-05-06T08:21:34.490Z,36.99
2018-05-06T08:22:34.417Z,37.03
2018-05-06T08:23:34.353Z,36.32
2018-05-06T08:24:34.294Z,35.83
2018-05-06T08:25:34.217Z,36.40
2018-05-06T08:26:34.157Z,35.72
2018-05-06T08:27:34.081Z,36.00
2018-05-06T08:28:34.016Z,35.13
2018-05-06T08:29:33.955Z,35.81
2018-05-06T08:30:33.879Z,35.91
2018-05-06T08:31:33.827Z,36.86
2018-05-06T08:32:33.757Z,36.46
2018-05-06T08:33:33.684Z,36.61
2018-05-06T08:34:33.619Z,37.29
2018-05-06T08:35:33.546Z,37.10
2018-05-06T08:36:33.481Z,37.58
2018-05-06T08:37:33.491Z,37.77
2018-05-06T08:38:33.343Z,38.25
2018-05-06T08:39:33.281Z,38.25
2018-05-06T08:40:33.217Z,36.59
2018-05-06T08:41:33.145Z,37.93
2018-05-06T08:42:33.084Z,39.16
2018-05-06T08:43:33.018Z,39.11
2018-05-06T08:44:32.946Z,39.55
2018-05-06T08:45:32.883Z,37.46
2018-05-06T08:46:32.826Z,33.97
2018-05-06T08:47:32.753Z,34.42
2018-05-06T08:48:32.682Z,35.02
2018-05-06T08:49:32.619Z,34.54
2018-05-06T08:50:32.545Z,36.38
2018-05-06T08:51:32.560Z,35.95
2018-05-06T08:52:32.421Z,37.71
2018-05-06T08:53:32.361Z,36.88
2018-05-06T08:54:32.289Z,37.09
2018-05-06T08:55:32.222Z,36.35
2018-05-06T08:56:32.160Z,36.04
2018-05-06T08:57:32.085Z,36.52
2018-05-06T08:58:32.022Z,37.77
2018-05-06T08:59:32.043Z,37.30
2018-05-06T09:00:31.895Z,37.32
2018-05-06T09:01:31.820Z,35.19
2018-05-06T09:02:31.762Z,34.39
2018-05-06T09:03:31.695Z,35.36
2018-05-06T09:04:31.635Z,33.92
2018-05-06T09:05:31.563Z,34.31
2018-05-06T09:06:31.498Z,33.78
2018-05-06T09:07:31.437Z,34.92
2018-05-06T09:08:31.371Z,35.10
2018-05-06T09:09:31.309Z,36.34
2018-05-06T09:10:31.234Z,36.16
2018-05-06T09:11:31.174Z,36.28
2018-05-06T09:12:31.109Z,36.12
2018-05-06T09:13:31.047Z,35.62
2018-05-06T09:14:30.986Z,35.35
2018-05-06T09:15:30.926Z,35.09
2018-05-06T09:16:30.849Z,34.02
2018-05-06T09:17:30.789Z,34.43
2018-05-06T09:18:30.724Z,34.25
2018-05-06T09:19:30.662Z,33.39
2018-05-06T09:20:30.597Z,33.12
2018-05-06T09:21:30.523Z,32.05
2018-05-06T09:22:30.460Z,31.44
2018-05-06T09:23:30.398Z,31.94
2018-05-06T09:24:30.338Z,32.92
2018-05-06T09:25:30.345Z,33.38
2018-05-06T09:26:30.213Z,33.22
2018-05-06T09:27:30.151Z,34.07
2018-05-06T09:28:30.077Z,35.23
2018-05-06T09:29:30.014Z,35.23
2018-05-06T09:30:29.950Z,35.54
2018-05-06T09:31:29.889Z,35.12
2018-05-06T09:32:29.837Z,35.42
2018-05-06T09:33:29.762Z,35.72
2018-05-06T09:34:29.704Z,36.60
2018-05-06T09:35:29.624Z,35.86
2018-05-06T09:36:29.569Z,34.53
2018-05-06T09:37:29.501Z,34.44
2018-05-06T09:38:29.441Z,34.25
2018-05-06T09:39:29.376Z,33.96
2018-05-06T09:40:29.326Z,33.94
2018-05-06T09:41:29.238Z,34.19
2018-05-06T09:42:29.188Z,34.86
2018-05-06T09:43:29.116Z,34.88
2018-05-06T09:44:29.050Z,33.99
2018-05-06T09:45:28.988Z,35.44
2018-05-06T09:46:28.925Z,35.52
2018-05-06T09:47:28.851Z,34.84
2018-05-06T09:48:28.791Z,37.00
2018-05-06T09:49:28.727Z,38.06
2018-05-06T09:50:28.670Z,39.12
2018-05-06T09:51:28.591Z,40.17
2018-05-06T09:52:28.526Z,40.65
2018-05-06T09:53:28.464Z,41.63
2018-05-06T09:54:28.401Z,39.78
2018-05-06T09:55:28.327Z,40.34
2018-05-06T09:56:28.266Z,40.07
2018-05-06T09:57:28.203Z,41.78
2018-05-06T09:58:28.129Z,41.48
2018-05-06T09:59:28.071Z,41.46
2018-05-06T10:00:27.993Z,42.15
2018-05-06T10:01:27.929Z,42.05
2018-05-06T10:02:27.854Z,42.25
2018-05-06T10:03:27.792Z,42.32
2018-05-06T10:04:27.715Z,42.90
2018-05-06T10:05:27.653Z,43.48
2018-05-06T10:06:27.577Z,43.58
2018-05-06T10:07:27.515Z,42.11
2018-05-06T10:08:27.444Z,43.87
2018-05-06T10:09:27.379Z,44.64
2018-05-06T10:21:43.917Z,44.46
2018-05-06T10:22:41.217Z,44.18
2018-05-06T10:23:41.167Z,43.70
2018-05-06T10:24:41.081Z,41.57
2018-05-06T10:25:41.007Z,41.84
2018-05-06T10:26:40.931Z,43.10
2018-05-06T10:27:40.859Z,43.48
2018-05-06T10:28:40.794Z,42.90
2018-05-06T10:29:40.717Z,43.58
2018-05-06T10:30:40.643Z,43.67
2018-05-06T10:31:40.567Z,43.29
2018-05-06T10:32:40.507Z,43.12
2018-05-06T10:33:40.433Z,42.63
2018-05-06T10:34:40.357Z,42.52
2018-05-06T10:35:40.300Z,43.10
2018-05-06T10:36:40.207Z,41.84
2018-05-06T10:37:40.146Z,42.56
2018-05-06T10:38:40.070Z,41.54
2018-05-06T10:39:39.996Z,39.61
2018-05-06T10:40:39.919Z,39.92
2018-05-06T10:41:39.855Z,39.29
2018-05-06T10:42:39.780Z,39.20
2018-05-06T10:43:39.706Z,38.93
2018-05-06T10:44:39.634Z,39.01
2018-05-06T10:45:39.575Z,39.32
2018-05-06T10:46:39.496Z,39.36
2018-05-06T10:47:39.423Z,40.25
2018-05-06T10:48:39.357Z,38.33
2018-05-06T10:49:39.285Z,35.94
2018-05-06T10:50:39.220Z,35.09
2018-05-06T10:51:39.145Z,35.41
2018-05-06T10:52:39.082Z,33.88
2018-05-06T10:53:39.007Z,33.31
2018-05-06T10:54:38.945Z,33.96
2018-05-06T10:55:38.873Z,34.22
2018-05-06T10:56:38.813Z,34.02
2018-05-06T10:57:38.751Z,33.83
2018-05-06T10:58:38.676Z,33.92
2018-05-06T10:59:38.610Z,34.31
2018-05-06T11:00:38.546Z,34.22
2018-05-06T11:01:38.484Z,35.44
2018-05-06T11:02:38.412Z,35.33
2018-05-06T11:03:38.346Z,35.72
2018-05-06T11:04:38.286Z,35.25
2018-05-06T11:05:38.224Z,35.17
2018-05-06T11:06:38.160Z,35.28
2018-05-06T11:07:38.088Z,33.84
2018-05-06T11:08:38.025Z,35.07
2018-05-06T11:09:37.974Z,33.12
2018-05-06T11:10:37.900Z,33.78
2018-05-06T11:11:37.837Z,35.04
2018-05-06T11:12:37.772Z,35.72
2018-05-06T11:13:37.710Z,35.93
2018-05-06T11:14:37.636Z,34.78
2018-05-06T11:15:37.573Z,33.92
2018-05-06T11:16:37.512Z,35.56
2018-05-06T11:17:37.450Z,35.41
2018-05-06T11:18:37.392Z,34.36
2018-05-06T11:19:37.325Z,32.94
2018-05-06T11:20:37.270Z,33.07
2018-05-06T11:21:37.200Z,32.99
2018-05-06T11:22:37.199Z,33.33
2018-05-06T11:23:37.074Z,32.60
2018-05-06T11:24:37.025Z,34.22
2018-05-06T11:25:36.955Z,33.25
2018-05-06T11:26:36.887Z,33.81
2018-05-06T11:27:36.830Z,33.54
2018-05-06T11:28:36.761Z,34.20
2018-05-06T11:29:36.700Z,35.51
2018-05-06T11:30:36.631Z,33.31
2018-05-06T11:31:36.562Z,31.87
2018-05-06T11:32:36.501Z,31.29
2018-05-06T11:33:36.453Z,31.77
2018-05-06T11:34:36.376Z,33.33
2018-05-06T11:35:36.313Z,33.41
2018-05-06T11:36:36.251Z,33.23
2018-05-06T11:37:36.188Z,32.96
2018-05-06T11:38:36.124Z,31.88
2018-05-06T11:39:36.065Z,32.05
2018-05-06T11:40:36.001Z,32.68
2018-05-06T11:41:35.950Z,33.17
2018-05-06T11:42:35.876Z,32.32
2018-05-06T11:43:35.816Z,32.94
2018-05-06T11:44:35.753Z,32.37
2018-05-06T11:45:35.689Z,33.84
2018-05-06T11:46:35.627Z,34.30
2018-05-06T11:47:35.569Z,35.23
2018-05-06T11:48:35.500Z,36.00
2018-05-06T11:49:35.437Z,36.88
2018-05-06T11:50:35.382Z,35.75
2018-05-06T11:51:35.314Z,35.88
2018-05-06T11:52:35.253Z,36.97
2018-05-06T11:53:35.203Z,33.86
2018-05-06T11:54:35.135Z,33.39
2018-05-06T11:59:05.714Z,31.98
2018-05-06T12:00:05.653Z,33.29
2018-05-06T12:02:29.854Z,33.95
2018-05-06T12:03:29.789Z,32.00
2018-05-06T12:04:29.728Z,32.67
2018-05-06T12:05:29.667Z,31.35
2018-05-06T12:06:29.605Z,31.25
2018-05-06T12:07:29.541Z,30.18
2018-05-06T12:08:29.479Z,30.75
2018-05-06T12:09:29.428Z,32.00
2018-05-06T12:10:29.353Z,32.15
2018-05-06T12:11:29.290Z,33.53
2018-05-06T12:12:29.229Z,32.73
2018-05-06T12:13:29.167Z,33.88
2018-05-06T12:14:29.105Z,34.01
2018-05-06T12:15:29.043Z,32.86
2018-05-06T12:16:28.981Z,31.93
2018-05-06T12:17:28.917Z,30.57
2018-05-06T12:18:28.856Z,31.60
2018-05-06T12:19:28.792Z,31.81
2018-05-06T12:20:28.733Z,31.53
2018-05-06T12:21:28.667Z,31.73
2018-05-06T12:22:28.605Z,31.41
2018-05-06T12:23:28.541Z,31.34
2018-05-06T12:24:28.490Z,32.00
2018-05-06T12:25:28.419Z,32.08
2018-05-06T12:26:28.360Z,32.18
2018-05-06T12:27:28.300Z,33.33
2018-05-06T12:28:28.232Z,33.34
2018-05-06T12:29:28.180Z,32.40
2018-05-06T12:30:28.115Z,30.75
2018-05-06T12:31:28.043Z,30.69
2018-05-06T12:32:27.980Z,31.66
2018-05-06T12:33:27.919Z,32.41
2018-05-06T12:34:27.860Z,33.84
2018-05-06T12:35:27.793Z,34.35
2018-05-06T12:36:27.731Z,33.38
2018-05-06T12:37:27.670Z,33.94
2018-05-06T12:38:27.609Z,34.41
2018-05-06T12:39:27.545Z,35.59
2018-05-06T12:40:27.484Z,34.16
2018-05-06T12:41:27.419Z,34.17
2018-05-06T12:42:27.357Z,33.86
2018-05-06T12:43:27.396Z,34.35
2018-05-06T12:44:27.234Z,34.16
2018-05-06T12:45:27.184Z,34.20
2018-05-06T12:46:27.114Z,34.27
2018-05-06T12:47:27.048Z,34.46
2018-05-06T12:48:26.973Z,32.91
2018-05-06T12:49:26.995Z,33.78
2018-05-06T12:50:26.848Z,33.04
2018-05-06T12:51:26.785Z,32.92
2018-05-06T12:52:26.723Z,32.37
2018-05-06T12:53:26.659Z,32.00
2018-05-06T12:54:26.595Z,31.54
2018-05-06T12:55:26.534Z,31.61
2018-05-06T12:56:26.483Z,32.97
2018-05-06T12:57:26.414Z,32.86
2018-05-06T12:58:26.348Z,33.22
2018-05-06T12:59:26.286Z,33.43
2018-05-06T13:00:26.223Z,34.12
2018-05-06T13:01:26.159Z,32.97
2018-05-06T13:02:26.133Z,34.03
2018-05-06T13:03:26.037Z,33.98
2018-05-06T13:04:25.987Z,34.09
2018-05-06T13:05:25.916Z,34.52
2018-05-06T13:06:25.849Z,33.28
2018-05-06T13:07:25.789Z,31.53
2018-05-06T13:08:25.724Z,32.10